Time;durP1;ratioP1;P1;durP2;ratioP2;P2;SDS_P1;SDS_P2;PMS_P1;PMS_P2;Temp;Humidity;BMP_temperature;BMP_pressure;BME280_temperature;BME280_humidity;BME280_pressure;Samples;Min_cycle;Max_cycle;Signal;HPM_P1;HPM_P2
2023/09/30 00:01:01;;;;;;;18.60;15.30;;;;;;;13.34;77.82;101152.02;107948;1256;72117;-71
2023/09/30 00:03:28;;;;;;;20.70;16.40;;;;;;;13.25;78.01;101152.08;107974;1256;61882;-72
2023/09/30 00:05:55;;;;;;;21.40;15.80;;;;;;;13.22;78.26;101151.86;108016;1256;60461;-71
2023/09/30 00:08:23;;;;;;;20.30;15.60;;;;;;;13.24;78.29;101152.74;107887;1256;72319;-71
2023/09/30 00:10:50;;;;;;;18.30;15.60;;;;;;;13.28;78.51;101152.95;107973;1255;72462;-73
2023/09/30 00:13:17;;;;;;;19.00;15.50;;;;;;;13.31;78.47;101148.73;107971;1256;72720;-71
2023/09/30 00:15:44;;;;;;;21.20;15.50;;;;;;;13.31;78.41;101144.11;107945;1256;61796;-71
2023/09/30 00:18:10;;;;;;;19.20;15.90;;;;;;;13.33;78.34;101142.89;108086;1256;60328;-72
2023/09/30 00:20:37;;;;;;;18.60;14.90;;;;;;;13.36;78.43;101144.19;107981;1256;72429;-71
2023/09/30 00:23:09;;;;;;;;;;;;;;;13.38;78.22;101144.52;108001;1255;72805;-72
2023/09/30 00:25:36;;;;;;;21.30;16.50;;;;;;;13.41;78.29;101146.41;107931;1260;71825;-71
2023/09/30 00:28:03;;;;;;;21.20;17.80;;;;;;;13.43;78.21;101144.33;107916;1256;61743;-71
2023/09/30 00:30:30;;;;;;;22.40;16.50;;;;;;;13.44;78.26;101142.13;107843;1255;60594;-69
2023/09/30 00:32:59;;;;;;;20.80;17.00;;;;;;;13.43;78.18;101138.43;107986;1256;74335;-72
2023/09/30 00:35:26;;;;;;;22.80;17.00;;;;;;;13.38;78.08;101141.30;108002;1256;72828;-72
2023/09/30 00:37:53;;;;;;;23.00;17.80;;;;;;;13.30;78.00;101139.80;107951;1256;72636;-72
2023/09/30 00:40:20;;;;;;;23.00;18.10;;;;;;;13.20;77.89;101139.30;107912;1255;60723;-69
2023/09/30 00:42:47;;;;;;;23.10;18.30;;;;;;;13.13;78.10;101138.14;107986;1256;60349;-71
2023/09/30 00:45:14;;;;;;;21.80;17.60;;;;;;;13.15;78.25;101139.00;107980;1256;72701;-71
2023/09/30 00:47:41;;;;;;;22.40;16.90;;;;;;;13.12;78.19;101138.23;108014;1260;72869;-73
2023/09/30 00:50:12;;;;;;;19.90;16.50;;;;;;;13.03;78.14;101138.98;107614;1256;72542;-70
2023/09/30 00:52:42;;;;;;;20.10;16.70;;;;;;;12.93;78.22;101138.98;107894;1256;62709;-73
2023/09/30 00:55:10;;;;;;;21.80;16.40;;;;;;;12.89;78.39;101136.63;107620;1256;60218;-71
2023/09/30 00:57:39;;;;;;;19.50;16.30;;;;;;;12.85;78.34;101137.26;108006;1256;74298;-72
2023/09/30 01:00:07;;;;;;;18.80;15.60;;;;;;;12.81;78.46;101137.06;107871;1256;73109;-73
2023/09/30 01:02:34;;;;;;;20.90;16.40;;;;;;;12.75;78.38;101139.11;108043;1255;72693;-70
2023/09/30 01:05:02;;;;;;;20.40;16.20;;;;;;;12.72;78.38;101136.79;107879;1255;61977;-71
2023/09/30 01:07:29;;;;;;;21.20;16.80;;;;;;;12.74;78.53;101136.48;107881;1256;61095;-71
2023/09/30 01:09:56;;;;;;;20.60;16.40;;;;;;;12.76;78.56;101134.84;107969;1257;73869;-70
2023/09/30 01:12:23;;;;;;;21.00;15.90;;;;;;;12.80;78.61;101132.02;107763;1261;73418;-70
2023/09/30 01:14:49;;;;;;;20.10;15.80;;;;;;;12.84;78.49;101134.08;107956;1256;72537;-70
2023/09/30 01:17:16;;;;;;;20.50;16.00;;;;;;;12.86;78.32;101132.86;107892;1255;60876;-71
2023/09/30 01:19:45;;;;;;;17.70;14.80;;;;;;;12.89;78.26;101130.20;107897;1255;60628;-70
2023/09/30 01:22:11;;;;;;;17.20;14.40;;;;;;;12.90;78.20;101125.08;107740;1256;73919;-70
2023/09/30 01:24:40;;;;;;;17.70;14.30;;;;;;;12.92;78.11;101126.64;107921;1256;71511;-70
2023/09/30 01:27:07;;;;;;;17.10;14.20;;;;;;;12.92;78.12;101119.77;107964;1256;72492;-70
2023/09/30 01:29:35;;;;;;;16.80;13.50;;;;;;;12.93;77.81;101118.64;107909;1255;60560;-70
2023/09/30 01:32:01;;;;;;;20.10;13.80;;;;;;;12.90;77.65;101116.43;107714;1256;59178;-71
2023/09/30 01:34:28;;;;;;;18.90;14.00;;;;;;;12.85;77.50;101118.07;107949;1256;73541;-71
2023/09/30 01:36:55;;;;;;;21.80;16.30;;;;;;;12.81;77.43;101113.38;107957;1255;72674;-71
2023/09/30 01:39:22;;;;;;;21.20;15.90;;;;;;;12.81;77.52;101119.00;107789;1256;71228;-71
2023/09/30 01:41:49;;;;;;;18.20;15.20;;;;;;;12.82;77.57;101120.66;107889;1255;61995;-71
2023/09/30 01:44:16;;;;;;;20.40;14.50;;;;;;;12.84;77.62;101118.29;107911;1256;60538;-71
2023/09/30 01:46:43;;;;;;;16.50;13.80;;;;;;;12.85;77.68;101119.40;107916;1256;73693;-71
2023/09/30 01:49:10;;;;;;;18.60;14.50;;;;;;;12.84;77.56;101112.70;107965;1255;72561;-71
2023/09/30 01:51:36;;;;;;;17.90;14.70;;;;;;;12.83;77.46;101115.54;107925;1257;73792;-71
2023/09/30 01:54:03;;;;;;;19.60;15.60;;;;;;;12.82;77.34;101113.32;108012;1256;62035;-71
2023/09/30 01:56:30;;;;;;;17.90;14.90;;;;;;;12.81;77.49;101116.64;107942;1256;60420;-71
2023/09/30 01:58:57;;;;;;;17.10;14.30;;;;;;;12.79;77.31;101123.17;107937;1256;73911;-71
2023/09/30 02:01:24;;;;;;;16.10;13.90;;;;;;;12.79;77.21;101124.61;107813;1256;72743;-71
2023/09/30 02:03:51;;;;;;;16.60;14.30;;;;;;;12.76;77.18;101120.96;107914;1260;72373;-72
2023/09/30 02:06:20;;;;;;;16.90;14.10;;;;;;;12.70;76.97;101116.68;108053;1256;60489;-71
2023/09/30 02:08:47;;;;;;;17.00;14.20;;;;;;;12.69;76.96;101112.01;107969;1255;60362;-71
2023/09/30 02:11:14;;;;;;;19.40;14.10;;;;;;;12.67;77.11;101116.23;107912;1256;73658;-71
2023/09/30 02:13:42;;;;;;;16.60;14.50;;;;;;;12.60;76.94;101111.56;108007;1256;71743;-71
2023/09/30 02:16:13;;;;;;;18.10;14.80;;;;;;;12.56;77.06;101110.78;107922;1256;71903;-71
2023/09/30 02:18:47;;;;;;;22.40;15.70;;;;;;;12.57;77.12;101110.23;107916;1256;61923;-71
2023/09/30 02:21:14;;;;;;;17.20;14.30;;;;;;;12.57;77.25;101108.48;107919;1256;60752;-71
2023/09/30 02:23:41;;;;;;;17.90;14.30;;;;;;;12.58;77.28;101108.22;107969;1255;72966;-71
2023/09/30 02:26:07;;;;;;;17.30;13.70;;;;;;;12.59;77.31;101108.16;107955;1256;72635;-71
2023/09/30 02:28:34;;;;;;;17.60;14.40;;;;;;;12.60;77.31;101105.23;108021;1255;72368;-71
2023/09/30 02:31:01;;;;;;;16.90;14.50;;;;;;;12.59;77.18;101108.49;107952;1256;60418;-70
2023/09/30 02:33:29;;;;;;;16.10;14.40;;;;;;;12.59;77.27;101104.96;108004;1255;60322;-71
2023/09/30 02:35:57;;;;;;;18.20;15.30;;;;;;;12.56;77.29;101105.16;107919;1256;71276;-72
2023/09/30 02:38:24;;;;;;;17.60;13.30;;;;;;;12.50;77.35;101101.89;107949;1256;72686;-71
2023/09/30 02:40:51;;;;;;;18.20;14.20;;;;;;;12.44;77.45;101097.83;107971;1256;72846;-70
2023/09/30 02:43:19;;;;;;;19.30;13.50;;;;;;;12.34;77.36;101097.59;107962;1256;61878;-70
2023/09/30 02:45:47;;;;;;;17.20;14.00;;;;;;;12.28;77.39;101098.06;107783;1256;60329;-71
2023/09/30 02:48:14;;;;;;;16.40;13.70;;;;;;;12.23;77.67;101097.87;108050;1256;73997;-70
2023/09/30 02:50:44;;;;;;;16.30;13.90;;;;;;;12.22;77.78;101094.59;108008;1255;71129;-70
2023/09/30 02:53:13;;;;;;;20.80;14.00;;;;;;;12.23;77.84;101094.16;107952;1256;72675;-70
2023/09/30 02:55:40;;;;;;;15.80;13.20;;;;;;;12.24;77.89;101095.14;107984;1256;61852;-70
2023/09/30 02:58:10;;;;;;;15.70;12.80;;;;;;;12.26;77.79;101096.06;107793;1256;60328;-70
2023/09/30 03:00:37;;;;;;;18.40;14.50;;;;;;;12.25;77.77;101092.73;107965;1256;73662;-72
2023/09/30 03:03:04;;;;;;;16.30;13.30;;;;;;;12.25;77.66;101093.70;107953;1256;72629;-71
2023/09/30 03:05:34;;;;;;;18.40;13.40;;;;;;;12.21;77.61;101095.27;107751;1259;273484;-71
2023/09/30 03:08:01;;;;;;;16.60;13.50;;;;;;;12.14;77.44;101094.77;107991;1256;61711;-71
2023/09/30 03:10:28;;;;;;;17.60;13.60;;;;;;;12.07;77.58;101092.68;107894;1256;60495;-71
2023/09/30 03:12:56;;;;;;;15.90;13.70;;;;;;;12.06;77.56;101095.73;108008;1256;73771;-71
2023/09/30 03:15:23;;;;;;;14.40;12.80;;;;;;;12.05;77.68;101090.09;108005;1256;74011;-72
2023/09/30 03:17:50;;;;;;;15.50;13.00;;;;;;;12.06;77.72;101089.36;107976;1256;72863;-71
2023/09/30 03:20:21;;;;;;;16.80;13.30;;;;;;;12.07;77.76;101091.99;107998;1255;61842;-71
2023/09/30 03:22:48;;;;;;;15.30;12.80;;;;;;;12.06;77.52;101083.45;108010;1256;60405;-72
2023/09/30 03:25:17;;;;;;;15.90;13.50;;;;;;;12.04;77.55;101085.38;107925;1255;73790;-72
2023/09/30 03:27:46;;;;;;;19.30;13.50;;;;;;;12.06;77.75;101083.14;108009;1255;72466;-71
2023/09/30 03:30:15;;;;;;;17.60;13.60;;;;;;;12.08;77.59;101083.86;107966;1255;71821;-71
2023/09/30 03:32:42;;;;;;;16.10;12.80;;;;;;;12.10;77.47;101084.89;107987;1256;61955;-71
2023/09/30 03:35:10;;;;;;;16.30;12.60;;;;;;;12.13;77.35;101084.60;107945;1256;60212;-72
2023/09/30 03:37:37;;;;;;;18.10;13.10;;;;;;;12.12;77.22;101083.62;108023;1256;74014;-72
2023/09/30 03:40:13;;;;;;;18.80;14.60;;;;;;;12.11;77.17;101084.20;107975;1256;72601;-71
2023/09/30 03:42:42;;;;;;;17.60;13.70;;;;;;;12.12;77.10;101082.98;107999;1256;71412;-71
2023/09/30 03:45:10;;;;;;;22.00;15.40;;;;;;;12.11;77.10;101082.66;107759;1256;61987;-70
2023/09/30 03:47:38;;;;;;;20.10;14.20;;;;;;;12.06;77.03;101081.04;108004;1256;60528;-70
2023/09/30 03:50:05;;;;;;;19.00;14.50;;;;;;;11.99;77.26;101081.74;107932;1256;74022;-71
2023/09/30 03:52:33;;;;;;;19.40;14.90;;;;;;;11.91;77.36;101078.60;107951;1255;72743;-71
2023/09/30 03:55:04;;;;;;;18.50;15.00;;;;;;;11.89;77.50;101076.98;107915;1257;72525;-70
2023/09/30 03:57:31;;;;;;;18.80;14.70;;;;;;;11.90;77.57;101075.22;107943;1255;62274;-70
2023/09/30 03:59:58;;;;;;;15.60;13.60;;;;;;;11.87;77.61;101076.00;107965;1256;60338;-70
2023/09/30 04:02:25;;;;;;;16.60;14.10;;;;;;;11.82;77.70;101074.85;108004;1256;73890;-70
2023/09/30 04:04:53;;;;;;;19.60;14.80;;;;;;;11.81;77.81;101076.33;107957;1256;72767;-72
2023/09/30 04:07:21;;;;;;;16.90;14.10;;;;;;;11.83;77.88;101077.42;107957;1256;72525;-71
2023/09/30 04:09:48;;;;;;;17.70;13.50;;;;;;;11.84;77.85;101078.06;107927;1256;61874;-71
2023/09/30 04:12:15;;;;;;;17.20;13.50;;;;;;;11.81;77.78;101078.15;108032;1256;60359;-72
2023/09/30 04:14:41;;;;;;;18.80;14.40;;;;;;;11.72;77.90;101085.98;108021;1256;72530;-71
2023/09/30 04:17:09;;;;;;;19.40;15.20;;;;;;;11.69;77.91;101087.88;107977;1256;71552;-71
2023/09/30 04:19:36;;;;;;;17.60;14.70;;;;;;;11.70;78.21;101085.86;107961;1255;72498;-71
2023/09/30 04:22:04;;;;;;;19.40;16.00;;;;;;;11.65;78.15;101086.77;108007;1256;61801;-71
2023/09/30 04:24:32;;;;;;;22.40;18.40;;;;;;;11.61;78.44;101089.44;108050;1256;60285;-71
2023/09/30 04:27:02;;;;;;;21.30;16.60;;;;;;;11.64;78.65;101086.10;107974;1256;73456;-71
2023/09/30 04:29:29;;;;;;;21.00;17.40;;;;;;;11.70;78.63;101090.08;108007;1256;72679;-72
2023/09/30 04:31:56;;;;;;;22.20;17.60;;;;;;;11.77;78.78;101091.71;107807;1256;72441;-74
2023/09/30 04:34:24;;;;;;;27.90;20.60;;;;;;;11.85;78.88;101085.02;108016;1255;62146;-72
2023/09/30 04:36:52;;;;;;;27.30;21.20;;;;;;;11.91;78.95;101085.31;107966;1255;60811;-70
2023/09/30 04:39:18;;;;;;;28.00;20.60;;;;;;;11.99;78.86;101084.89;108006;1256;73861;-70
2023/09/30 04:41:46;;;;;;;29.10;19.20;;;;;;;11.93;78.84;101078.37;108028;1256;72771;-72
2023/09/30 04:44:14;;;;;;;38.30;20.00;;;;;;;11.84;78.80;101081.88;108016;1255;72476;-72
2023/09/30 04:46:45;;;;;;;35.70;20.20;;;;;;;11.77;78.98;101088.19;107970;1256;62006;-71
2023/09/30 04:49:14;;;;;;;29.30;21.30;;;;;;;11.74;79.21;101086.33;108004;1256;60268;-71
2023/09/30 04:51:41;;;;;;;31.70;22.30;;;;;;;11.81;79.34;101086.71;107983;1255;72441;-71
2023/09/30 04:54:08;;;;;;;28.70;21.20;;;;;;;11.91;79.57;101085.36;107995;1255;72648;-71
2023/09/30 04:56:35;;;;;;;27.90;21.50;;;;;;;12.05;79.69;101087.09;107918;1258;71214;-71
2023/09/30 04:59:04;;;;;;;29.10;22.10;;;;;;;12.16;79.69;101084.45;107977;1256;60912;-71
2023/09/30 05:01:31;;;;;;;29.00;21.30;;;;;;;12.25;79.89;101081.92;107938;1255;60337;-71
2023/09/30 05:03:59;;;;;;;28.60;22.00;;;;;;;12.36;79.79;101084.90;107946;1255;72381;-72
2023/09/30 05:06:26;;;;;;;28.00;21.70;;;;;;;12.46;79.85;101086.75;107994;1256;72822;-71
2023/09/30 05:08:55;;;;;;;27.10;21.50;;;;;;;12.53;79.96;101085.78;107978;1256;73934;-71
2023/09/30 05:11:22;;;;;;;32.90;23.50;;;;;;;12.55;79.72;101086.02;107900;1256;61790;-71
2023/09/30 05:13:49;;;;;;;29.30;21.90;;;;;;;12.60;79.87;101086.95;107950;1256;60465;-73
2023/09/30 05:16:16;;;;;;;30.90;22.40;;;;;;;12.68;79.83;101085.99;107976;1256;73692;-71
2023/09/30 05:18:43;;;;;;;30.20;22.50;;;;;;;12.77;79.97;101082.63;108002;1256;71500;-71
2023/09/30 05:21:10;;;;;;;30.20;22.10;;;;;;;12.90;80.05;101082.27;108179;1256;72482;-71
2023/09/30 05:23:38;;;;;;;27.30;21.40;;;;;;;13.02;79.98;101081.54;107926;1255;60554;-71
2023/09/30 05:26:05;;;;;;;30.40;22.30;;;;;;;13.13;80.06;101083.16;107902;1256;60375;-71
2023/09/30 05:28:32;;;;;;;26.30;19.90;;;;;;;13.28;80.19;101081.90;107995;1256;73684;-71
2023/09/30 05:30:59;;;;;;;26.90;21.10;;;;;;;13.43;80.29;101079.92;107895;1256;72785;-72
2023/09/30 05:33:27;;;;;;;26.40;20.10;;;;;;;13.55;80.16;101077.77;107869;1256;72642;-71
2023/09/30 05:35:54;;;;;;;24.00;19.90;;;;;;;13.70;80.24;101077.38;107974;1255;61835;-71
2023/09/30 05:38:23;;;;;;;24.30;18.00;;;;;;;13.83;80.12;101079.45;107962;1256;60432;-71
2023/09/30 05:40:49;;;;;;;22.50;17.80;;;;;;;13.98;80.12;101078.29;107979;1255;73548;-72
2023/09/30 05:43:16;;;;;;;20.70;16.70;;;;;;;14.13;80.14;101079.70;108007;1256;71776;-72
2023/09/30 05:45:49;;;;;;;16.80;15.00;;;;;;;14.30;80.10;101080.89;107969;1257;71497;-73
2023/09/30 05:48:16;;;;;;;19.30;15.60;;;;;;;14.48;80.16;101074.23;107949;1257;62106;-72
2023/09/30 05:50:43;;;;;;;17.30;15.20;;;;;;;14.61;80.00;101072.84;107933;1256;60560;-72
2023/09/30 05:53:10;;;;;;;17.80;15.60;;;;;;;14.74;79.92;101072.02;107873;1256;73862;-71
2023/09/30 05:55:38;;;;;;;20.50;16.40;;;;;;;14.88;79.86;101072.02;107883;1256;71816;-72
2023/09/30 05:58:05;;;;;;;19.10;16.60;;;;;;;14.99;79.66;101069.90;107975;1256;72792;-72
2023/09/30 06:00:35;;;;;;;20.20;17.00;;;;;;;15.11;79.70;101071.74;107892;1256;61811;-71
2023/09/30 06:03:04;;;;;;;18.90;16.10;;;;;;;15.26;79.64;101072.54;107922;1256;60348;-71
2023/09/30 06:05:32;;;;;;;23.70;18.90;;;;;;;15.42;79.72;101075.66;107900;1260;73697;-71
2023/09/30 06:08:02;;;;;;;21.70;17.60;;;;;;;15.57;79.55;101073.54;107942;1260;72495;-71
2023/09/30 06:10:29;;;;;;;20.70;18.50;;;;;;;15.73;79.47;101074.61;107959;1260;72629;-71
2023/09/30 06:12:57;;;;;;;21.00;17.70;;;;;;;15.89;79.37;101073.64;107910;1256;61120;-71
2023/09/30 06:15:27;;;;;;;21.20;18.80;;;;;;;16.06;79.15;101074.19;107912;1255;60445;-71
2023/09/30 06:17:57;;;;;;;23.00;18.60;;;;;;;16.22;78.94;101070.50;107941;1256;73766;-71
2023/09/30 06:20:26;;;;;;;25.80;19.20;;;;;;;16.39;78.67;101073.91;107947;1256;71664;-72
2023/09/30 06:22:56;;;;;;;22.50;19.10;;;;;;;16.54;78.30;101071.94;107959;1258;73886;-71
2023/09/30 06:25:27;;;;;;;25.10;19.50;;;;;;;16.68;77.95;101070.47;107964;1259;62580;-71
2023/09/30 06:27:57;;;;;;;23.30;19.00;;;;;;;16.83;77.51;101071.68;107958;1256;61413;-71
2023/09/30 06:30:30;;;;;;;23.40;19.10;;;;;;;16.96;76.95;101072.25;107989;1256;73181;-71
2023/09/30 06:33:00;;;;;;;21.20;18.60;;;;;;;17.11;76.48;101071.48;108020;1255;71772;-70
2023/09/30 06:35:29;;;;;;;23.50;18.70;;;;;;;17.26;76.13;101067.52;107944;1256;71422;-70
2023/09/30 06:37:56;;;;;;;26.70;17.80;;;;;;;17.41;75.67;101066.63;107943;1256;61946;-71
2023/09/30 06:40:23;;;;;;;24.10;17.60;;;;;;;17.58;75.28;101064.73;107952;1255;60413;-71
2023/09/30 06:42:51;;;;;;;24.00;17.80;;;;;;;17.73;74.61;101065.43;107916;1256;73703;-71
2023/09/30 06:45:19;;;;;;;20.50;17.80;;;;;;;17.83;74.23;101061.75;107964;1256;72826;-72
2023/09/30 06:47:45;;;;;;;23.90;19.20;;;;;;;17.94;73.62;101054.66;107961;1256;72746;-72
2023/09/30 06:50:16;;;;;;;21.80;18.30;;;;;;;18.06;73.23;101057.63;107988;1256;60411;-72
2023/09/30 06:52:45;;;;;;;22.80;18.50;;;;;;;18.18;72.41;101056.95;107973;1260;60320;-72
2023/09/30 06:55:16;;;;;;;21.90;17.80;;;;;;;18.30;71.75;101056.20;107888;1256;73415;-72
2023/09/30 06:57:43;;;;;;;24.00;17.40;;;;;;;18.44;71.17;101051.68;107934;1256;72669;-72
2023/09/30 07:00:11;;;;;;;20.70;16.90;;;;;;;18.59;70.43;101047.14;107829;1256;70961;-71
2023/09/30 07:02:40;;;;;;;22.10;17.10;;;;;;;18.73;69.85;101042.23;107921;1255;61713;-72
2023/09/30 07:05:11;;;;;;;19.30;16.80;;;;;;;18.86;69.01;101044.06;107932;1256;60446;-72
2023/09/30 07:07:39;;;;;;;20.50;16.40;;;;;;;19.00;68.33;101041.95;107958;1256;72628;-72
2023/09/30 07:10:07;;;;;;;19.60;14.20;;;;;;;19.14;67.72;101041.34;107926;1256;72597;-74
2023/09/30 07:12:35;;;;;;;21.00;15.20;;;;;;;19.28;66.95;101037.85;107681;1256;72420;-72
2023/09/30 07:15:03;;;;;;;17.10;13.90;;;;;;;19.41;66.05;101037.25;107889;1256;60541;-72
2023/09/30 07:17:30;;;;;;;18.10;14.50;;;;;;;19.52;65.35;101037.64;108022;1256;60741;-72
2023/09/30 07:19:57;;;;;;;17.00;14.40;;;;;;;19.65;64.82;101036.55;107924;1256;73980;-72
2023/09/30 07:22:24;;;;;;;20.80;15.60;;;;;;;19.78;64.28;101034.77;107990;1256;71890;-72
2023/09/30 07:25:07;;;;;;;17.10;14.30;;;;;;;19.93;63.83;101034.62;107988;1256;73131;-69
2023/09/30 07:27:34;;;;;;;18.00;14.80;;;;;;;20.05;63.30;101034.77;107975;1256;60608;-71
2023/09/30 07:30:01;;;;;;;16.30;13.70;;;;;;;20.11;62.11;101035.31;107986;1256;60455;-72
2023/09/30 07:32:28;;;;;;;17.10;13.40;;;;;;;20.13;61.26;101034.00;107912;1256;73851;-72
2023/09/30 07:34:55;;;;;;;16.60;13.00;;;;;;;20.16;60.60;101032.85;107909;1256;73240;-71
2023/09/30 07:37:21;;;;;;;16.60;13.30;;;;;;;20.23;60.16;101032.99;107902;1256;72682;-71
2023/09/30 07:39:49;;;;;;;15.80;12.90;;;;;;;20.29;59.49;101030.59;107984;1256;60419;-72
2023/09/30 07:42:17;;;;;;;14.50;12.10;;;;;;;20.48;58.77;101029.19;107742;1256;60458;-72
2023/09/30 07:44:43;;;;;;;16.20;12.40;;;;;;;20.62;57.74;101027.19;107988;1256;72767;-72
2023/09/30 07:47:10;;;;;;;15.90;12.80;;;;;;;20.68;57.17;101023.92;107954;1260;71356;-72
2023/09/30 07:49:38;;;;;;;15.40;11.80;;;;;;;20.86;56.45;101022.94;107896;1256;72702;-73
2023/09/30 07:52:06;;;;;;;16.50;12.70;;;;;;;20.89;55.87;101021.76;108002;1259;61967;-72
2023/09/30 07:54:33;;;;;;;14.10;11.70;;;;;;;21.07;55.74;101017.23;107793;1255;60395;-72
2023/09/30 07:57:00;;;;;;;15.80;11.50;;;;;;;21.19;55.40;101019.13;107991;1256;73516;-73
2023/09/30 07:59:27;;;;;;;15.60;12.10;;;;;;;21.32;54.82;101012.97;107963;1256;72695;-72
2023/09/30 08:01:53;;;;;;;17.50;12.90;;;;;;;21.44;54.24;101013.67;107935;1256;72453;-71
2023/09/30 08:04:20;;;;;;;18.70;12.80;;;;;;;21.53;54.31;101015.50;107930;1255;60484;-72
2023/09/30 08:06:49;;;;;;;16.80;12.70;;;;;;;21.58;54.47;101014.86;107920;1256;60286;-73
2023/09/30 08:09:18;;;;;;;15.00;12.40;;;;;;;21.69;54.65;101015.21;108026;1256;73874;-72
2023/09/30 08:11:45;;;;;;;15.30;12.00;;;;;;;21.82;54.56;101013.86;108007;1256;71810;-72
2023/09/30 08:14:11;;;;;;;17.10;13.00;;;;;;;21.92;53.96;101009.84;107980;1256;72484;-72
2023/09/30 08:16:38;;;;;;;17.60;13.20;;;;;;;21.97;54.09;101010.12;108015;1256;61226;-72
2023/09/30 08:19:05;;;;;;;13.50;12.00;;;;;;;22.04;54.24;101004.70;107969;1256;61131;-73
2023/09/30 08:21:32;;;;;;;15.80;12.50;;;;;;;22.17;54.27;101002.45;107976;1256;74672;-73
2023/09/30 08:23:59;;;;;;;16.80;13.00;;;;;;;22.30;53.89;101001.76;108004;1256;72834;-73
2023/09/30 08:26:29;;;;;;;17.10;12.60;;;;;;;22.55;53.13;101002.40;107980;1260;72627;-72
2023/09/30 08:28:57;;;;;;;14.00;12.30;;;;;;;22.70;52.82;100995.41;107944;1256;61238;-72
2023/09/30 08:31:25;;;;;;;18.30;12.00;;;;;;;22.84;52.35;100999.69;107918;1255;60500;-72
2023/09/30 08:33:54;;;;;;;13.80;11.40;;;;;;;22.97;52.05;100999.30;107934;1257;74426;-72
2023/09/30 08:36:21;;;;;;;15.00;11.60;;;;;;;23.10;51.47;100999.85;107973;1258;72646;-71
2023/09/30 08:38:48;;;;;;;13.50;11.30;;;;;;;23.21;51.29;101002.46;107983;1256;71481;-71
2023/09/30 08:41:25;;;;;;;15.10;11.60;;;;;;;23.30;50.73;100998.20;107993;1256;61210;-71
2023/09/30 08:43:53;;;;;;;14.30;11.30;;;;;;;23.40;50.60;100995.44;107924;1256;61328;-73
2023/09/30 08:46:20;;;;;;;13.20;11.10;;;;;;;23.52;50.29;100991.77;107888;1256;74681;-72
2023/09/30 08:48:46;;;;;;;12.20;10.30;;;;;;;23.64;49.97;100988.55;107972;1256;72544;-72
2023/09/30 08:51:13;;;;;;;13.90;10.40;;;;;;;23.79;49.34;100985.19;107946;1256;73846;-72
2023/09/30 08:53:40;;;;;;;12.90;10.80;;;;;;;23.90;48.81;100983.63;107706;1256;60319;-73
2023/09/30 08:56:10;;;;;;;13.40;10.30;;;;;;;24.01;48.28;100981.38;107643;1256;60285;-72
2023/09/30 08:58:37;;;;;;;11.60;9.30;;;;;;;24.13;47.64;100976.15;107747;1256;75670;-72
2023/09/30 09:01:06;;;;;;;16.00;11.20;;;;;;;24.26;47.29;100978.84;107907;1256;72505;-71
2023/09/30 09:03:36;;;;;;;12.00;10.10;;;;;;;24.36;46.71;100975.44;107966;1256;72473;-70
2023/09/30 09:06:03;;;;;;;13.30;10.10;;;;;;;24.48;45.92;100975.61;107921;1256;61227;-72
2023/09/30 09:08:30;;;;;;;12.80;9.20;;;;;;;24.54;45.09;100976.23;108041;1256;61095;-72
2023/09/30 09:11:00;;;;;;;10.40;9.30;;;;;;;24.60;44.21;100974.14;107986;1256;74723;-72
2023/09/30 09:13:27;;;;;;;13.50;9.60;;;;;;;24.68;43.89;100973.75;107966;1256;72664;-72
2023/09/30 09:16:07;;;;;;;9.60;8.50;;;;;;;24.77;43.74;100965.86;107891;1259;72355;-72
2023/09/30 09:18:36;;;;;;;11.30;8.70;;;;;;;24.86;43.20;100968.00;107966;1256;61121;-73
2023/09/30 09:21:12;;;;;;;12.90;8.90;;;;;;;24.94;43.45;100969.58;107936;1255;61118;-73
2023/09/30 09:23:43;;;;;;;9.30;8.00;;;;;;;25.01;42.68;100960.73;107978;1255;73177;-72
2023/09/30 09:26:11;;;;;;;10.80;9.10;;;;;;;25.07;42.07;100958.39;107978;1256;71093;-72
2023/09/30 09:28:42;;;;;;;10.70;8.60;;;;;;;25.18;41.73;100955.80;107931;1260;72671;-72
2023/09/30 09:31:25;;;;;;;;;;;;;;;25.27;40.74;100953.30;107924;1256;61232;-72
2023/09/30 09:33:53;;;;;;;11.90;7.90;;;;;;;25.30;40.14;100956.52;107873;1256;61213;-71
2023/09/30 09:36:20;;;;;;;10.30;8.60;;;;;;;25.38;38.71;100953.77;108243;1256;74536;-71
2023/09/30 09:38:53;;;;;;;9.80;8.20;;;;;;;25.46;38.84;100947.04;107968;1256;72441;-71
2023/09/30 09:41:20;;;;;;;10.40;8.40;;;;;;;25.59;38.74;100949.73;107890;1256;72742;-72
2023/09/30 09:43:52;;;;;;;13.10;8.30;;;;;;;25.71;37.48;100948.35;107938;1256;61144;-71
2023/09/30 09:46:19;;;;;;;10.60;8.70;;;;;;;25.88;37.44;100950.00;107890;1258;61237;-72
2023/09/30 09:48:49;;;;;;;11.20;8.80;;;;;;;26.02;36.93;100944.26;107982;1256;74645;-72
2023/09/30 09:51:16;;;;;;;11.20;9.10;;;;;;;26.23;36.37;100939.69;107954;1256;72636;-72
2023/09/30 09:53:43;;;;;;;11.10;8.60;;;;;;;26.34;36.28;100933.01;107959;1256;72694;-71
2023/09/30 09:56:11;;;;;;;11.60;8.90;;;;;;;26.49;35.63;100936.11;107883;1256;61329;-72
2023/09/30 09:58:41;;;;;;;10.60;9.10;;;;;;;26.62;35.39;100928.74;108019;1256;61085;-71
2023/09/30 10:01:09;;;;;;;11.10;8.90;;;;;;;26.74;34.53;100923.61;108010;1255;74466;-71
2023/09/30 10:03:38;;;;;;;11.20;8.90;;;;;;;26.83;33.68;100922.26;107703;1256;72574;-72
2023/09/30 10:06:05;;;;;;;10.00;8.90;;;;;;;26.91;33.05;100916.94;107922;1260;64112;-72
2023/09/30 10:08:35;;;;;;;10.20;9.20;;;;;;;26.97;32.98;100914.07;108005;1256;61215;-70
2023/09/30 10:11:02;;;;;;;11.50;9.10;;;;;;;27.06;32.40;100914.50;107937;1256;60995;-71
2023/09/30 10:13:57;;;;;;;11.80;9.40;;;;;;;27.13;31.92;100913.03;107926;1256;74069;-71
2023/09/30 10:16:36;;;;;;;9.50;8.50;;;;;;;27.21;32.05;100909.59;107981;1259;64327;-72
2023/09/30 10:19:10;;;;;;;10.70;9.10;;;;;;;27.29;32.67;100908.73;107973;1257;73839;-72
2023/09/30 10:22:19;;;;;;;12.00;9.30;;;;;;;27.28;32.57;100906.05;107919;1256;61322;-71
2023/09/30 10:24:46;;;;;;;11.60;9.00;;;;;;;27.27;32.77;100905.64;107919;1256;60174;-71
2023/09/30 10:27:29;;;;;;;11.40;9.00;;;;;;;27.29;32.73;100895.40;108014;1256;65970;-71
2023/09/30 10:30:16;;;;;;;9.80;8.50;;;;;;;27.35;32.21;100895.36;107926;1256;73163;-69
2023/09/30 10:32:56;;;;;;;12.90;8.80;;;;;;;27.40;31.12;100893.04;107962;1260;72688;-71
2023/09/30 10:35:26;;;;;;;10.80;8.60;;;;;;;27.47;31.38;100890.95;107969;1256;61212;-72
2023/09/30 10:38:26;;;;;;;11.90;8.40;;;;;;;27.54;31.23;100892.73;107992;1257;61352;-71
2023/09/30 10:40:57;;;;;;;9.80;7.60;;;;;;;27.64;31.40;100886.48;107898;1257;67104;-71
2023/09/30 10:43:40;;;;;;;10.30;8.60;;;;;;;27.74;31.29;100882.21;107920;1256;63924;-71
2023/09/30 10:46:28;;;;;;;10.50;9.00;;;;;;;27.82;30.78;100878.44;107912;1256;62702;-72
2023/09/30 10:48:56;;;;;;;11.70;8.30;;;;;;;27.82;30.59;100876.48;107907;1260;61253;-72
2023/09/30 10:51:23;;;;;;;10.60;8.50;;;;;;;27.75;30.07;100875.73;107877;1259;61247;-71
2023/09/30 10:53:57;;;;;;;11.40;8.40;;;;;;;27.64;30.22;100873.48;107940;1259;74635;-72
2023/09/30 10:56:32;;;;;;;11.20;8.70;;;;;;;27.53;30.96;100873.84;108028;1256;64114;-72
2023/09/30 10:59:00;;;;;;;10.10;7.70;;;;;;;27.42;31.08;100870.50;107805;1257;75385;-72
2023/09/30 11:01:34;;;;;;;11.00;7.80;;;;;;;27.31;31.43;100868.73;107974;1256;61134;-72
2023/09/30 11:04:05;;;;;;;10.30;8.20;;;;;;;27.20;31.77;100864.61;107740;1256;61154;-71
2023/09/30 11:06:33;;;;;;;11.60;8.00;;;;;;;27.16;31.88;100862.31;107927;1256;66081;-71
2023/09/30 11:09:00;;;;;;;9.20;8.30;;;;;;;27.15;31.91;100858.30;107725;1261;71235;-70
2023/09/30 11:11:35;;;;;;;10.70;8.10;;;;;;;27.19;31.81;100858.23;107879;1256;72470;-71